Time;durP1;ratioP1;P1;durP2;ratioP2;P2;SDS_P1;SDS_P2;PMS_P1;PMS_P2;Temp;Humidity;BMP_temperature;BMP_pressure;BME280_temperature;BME280_humidity;BME280_pressure;Samples;Min_cycle;Max_cycle;Signal;HPM_P1;HPM_P2
2022/07/26 00:02:05;;;;;;;0.73;0.50;;;21.90;99.90;;;;;;5065919;28;20186;-80
2022/07/26 00:04:30;;;;;;;0.43;0.43;;;21.90;99.90;;;;;;5066956;28;20718;-80
2022/07/26 00:06:56;;;;;;;0.53;0.53;;;21.90;99.90;;;;;;5067353;28;20589;-80
2022/07/26 00:09:22;;;;;;;0.47;0.40;;;21.80;99.90;;;;;;5064918;28;20182;-80
2022/07/26 00:11:47;;;;;;;1.37;1.27;;;21.80;99.90;;;;;;5066279;28;20646;-80
2022/07/26 00:14:13;;;;;;;0.30;0.30;;;21.70;99.90;;;;;;5071003;28;20645;-80
2022/07/26 00:16:39;;;;;;;0.30;0.30;;;21.70;99.90;;;;;;5070354;28;21289;-80
2022/07/26 00:19:06;;;;;;;0.70;0.70;;;21.70;99.90;;;;;;5064475;28;20206;-80
2022/07/26 00:21:33;;;;;;;0.30;0.30;;;21.80;99.90;;;;;;5065704;28;20605;-80
2022/07/26 00:23:59;;;;;;;0.20;0.20;;;21.90;99.90;;;;;;5057513;28;20182;-80
2022/07/26 00:26:24;;;;;;;0.30;0.30;;;21.90;99.90;;;;;;5072473;28;20639;-80
2022/07/26 00:28:50;;;;;;;0.30;0.30;;;22.00;99.90;;;;;;5067729;28;20224;-80
2022/07/26 00:31:15;;;;;;;0.30;0.30;;;22.10;99.90;;;;;;5069593;28;20946;-79
2022/07/26 00:33:41;;;;;;;0.30;0.30;;;22.20;99.90;;;;;;5067083;28;20197;-80
2022/07/26 00:36:07;;;;;;;0.30;0.30;;;22.30;99.90;;;;;;5075368;28;20189;-80
2022/07/26 00:38:32;;;;;;;2.93;0.83;;;22.40;99.90;;;;;;5069384;28;20268;-80
2022/07/26 00:40:58;;;;;;;0.20;0.20;;;22.50;99.90;;;;;;5068032;28;20283;-79
2022/07/26 00:43:23;;;;;;;0.30;0.30;;;22.50;99.90;;;;;;5065210;28;20184;-80
2022/07/26 00:45:49;;;;;;;0.30;0.30;;;22.60;99.90;;;;;;5069597;28;20181;-80
2022/07/26 00:48:16;;;;;;;0.30;0.30;;;22.60;99.90;;;;;;5069141;28;20204;-80
2022/07/26 00:50:41;;;;;;;1.90;0.43;;;22.70;99.90;;;;;;5069395;28;20265;-80
2022/07/26 00:53:07;;;;;;;0.73;0.30;;;22.60;99.90;;;;;;5068021;28;20193;-80
2022/07/26 00:55:32;;;;;;;0.40;0.40;;;22.60;99.90;;;;;;5069413;28;20674;-80
2022/07/26 00:58:00;;;;;;;0.20;0.20;;;22.70;99.90;;;;;;5067030;28;20216;-80
2022/07/26 01:00:26;;;;;;;0.30;0.30;;;22.60;99.90;;;;;;5065410;28;21007;-80
2022/07/26 01:02:53;;;;;;;0.50;0.50;;;22.60;99.90;;;;;;5068236;28;20185;-80
2022/07/26 01:05:19;;;;;;;0.40;0.33;;;22.70;99.90;;;;;;5070548;28;20175;-80
2022/07/26 01:07:45;;;;;;;0.30;0.30;;;22.70;99.90;;;;;;5071289;28;20177;-80
2022/07/26 01:10:12;;;;;;;0.40;0.40;;;22.80;99.90;;;;;;5070425;28;20224;-80
2022/07/26 01:12:42;;;;;;;0.30;0.30;;;22.90;99.90;;;;;;5063551;28;20196;-79
2022/07/26 01:15:10;;;;;;;0.20;0.20;;;22.90;99.90;;;;;;5080797;28;20295;-80
2022/07/26 01:17:35;;;;;;;1.50;1.40;;;22.90;99.90;;;;;;5064069;28;20684;-80
2022/07/26 01:20:01;;;;;;;0.13;0.13;;;22.90;99.90;;;;;;5063553;28;20208;-80
2022/07/26 01:22:27;;;;;;;0.20;0.20;;;22.80;99.90;;;;;;5070054;28;20181;-80
2022/07/26 01:24:52;;;;;;;0.20;0.20;;;22.80;99.90;;;;;;5062151;28;20183;-80
2022/07/26 01:27:18;;;;;;;0.53;0.20;;;22.70;99.90;;;;;;5067040;28;20185;-80
2022/07/26 01:29:44;;;;;;;0.47;0.40;;;22.70;99.90;;;;;;5064457;28;20197;-80
2022/07/26 01:32:09;;;;;;;0.23;0.23;;;22.70;99.90;;;;;;5087311;28;20197;-80
2022/07/26 01:34:35;;;;;;;0.50;0.50;;;22.70;99.90;;;;;;5060251;28;20550;-80
2022/07/26 01:37:01;;;;;;;0.20;0.20;;;22.70;99.90;;;;;;5066183;28;20181;-80
2022/07/26 01:39:26;;;;;;;1.37;0.43;;;22.70;99.90;;;;;;5065188;28;20212;-80
2022/07/26 01:41:52;;;;;;;0.30;0.30;;;22.60;99.90;;;;;;5065448;28;20177;-80
2022/07/26 01:44:18;;;;;;;0.20;0.20;;;22.70;99.90;;;;;;5081457;28;20181;-80
2022/07/26 01:46:44;;;;;;;0.20;0.20;;;22.70;99.90;;;;;;5069627;28;20208;-79
2022/07/26 01:49:09;;;;;;;0.37;0.37;;;22.70;99.90;;;;;;5061661;28;20202;-80
2022/07/26 01:51:35;;;;;;;0.30;0.30;;;22.70;99.90;;;;;;5066026;28;20271;-80
2022/07/26 01:54:01;;;;;;;0.53;0.53;;;22.70;99.90;;;;;;5062910;28;20554;-80
2022/07/26 01:56:27;;;;;;;0.20;0.20;;;22.60;99.90;;;;;;5073148;28;20258;-80
2022/07/26 01:58:52;;;;;;;0.40;0.40;;;22.60;99.90;;;;;;5060767;28;20205;-80
2022/07/26 02:01:18;;;;;;;0.40;0.40;;;22.60;99.90;;;;;;5067307;28;20231;-80
2022/07/26 02:03:43;;;;;;;0.20;0.20;;;22.60;99.90;;;;;;5067120;28;20266;-80
2022/07/26 02:06:09;;;;;;;0.30;0.30;;;22.60;99.90;;;;;;5066874;28;20188;-79
2022/07/26 02:08:34;;;;;;;0.30;0.30;;;22.60;99.90;;;;;;5065858;28;20184;-80
2022/07/26 02:11:00;;;;;;;0.17;0.17;;;22.60;99.90;;;;;;5054113;28;20205;-80
2022/07/26 02:13:28;;;;;;;3.17;0.63;;;22.50;99.90;;;;;;5082202;28;20221;-80
2022/07/26 02:15:53;;;;;;;0.50;0.50;;;22.30;99.90;;;;;;5068237;28;20210;-80
2022/07/26 02:18:19;;;;;;;0.30;0.30;;;22.00;99.90;;;;;;5071270;28;20181;-80
2022/07/26 02:20:45;;;;;;;0.30;0.30;;;22.00;99.90;;;;;;5063864;28;20216;-80
2022/07/26 02:23:11;;;;;;;0.20;0.20;;;22.10;99.90;;;;;;5077380;28;20174;-80
2022/07/26 02:25:36;;;;;;;0.50;0.50;;;21.80;99.90;;;;;;5074612;28;20184;-80
2022/07/26 02:28:02;;;;;;;2.00;1.90;;;21.70;99.90;;;;;;5075173;28;20256;-80
2022/07/26 02:30:28;;;;;;;5.70;0.60;;;21.50;99.90;;;;;;5070829;28;20278;-80
2022/07/26 02:32:53;;;;;;;0.53;0.53;;;21.40;99.90;;;;;;5065217;28;20681;-79
2022/07/26 02:35:19;;;;;;;0.43;0.43;;;21.50;99.90;;;;;;5068025;28;20600;-80
2022/07/26 02:37:45;;;;;;;0.20;0.20;;;21.50;99.90;;;;;;5068707;28;20200;-80
2022/07/26 02:40:11;;;;;;;0.30;0.23;;;21.70;99.90;;;;;;5066347;28;20224;-80
2022/07/26 02:42:37;;;;;;;0.20;0.20;;;21.80;99.90;;;;;;5072367;28;20177;-80
2022/07/26 02:45:02;;;;;;;0.20;0.20;;;21.90;99.90;;;;;;5065426;28;20182;-80
2022/07/26 02:47:29;;;;;;;0.50;0.40;;;22.00;99.90;;;;;;5072306;28;20686;-80
2022/07/26 02:49:54;;;;;;;0.30;0.30;;;22.00;99.90;;;;;;5073260;28;20216;-79
2022/07/26 02:52:20;;;;;;;0.30;0.30;;;22.00;99.90;;;;;;5065378;28;20189;-79
2022/07/26 02:54:45;;;;;;;0.40;0.40;;;22.00;99.90;;;;;;5073537;28;20634;-79
2022/07/26 02:57:13;;;;;;;0.30;0.30;;;22.00;99.90;;;;;;5074788;28;20688;-80
2022/07/26 02:59:38;;;;;;;1.70;0.50;;;22.00;99.90;;;;;;5072655;28;20305;-80
2022/07/26 03:02:04;;;;;;;0.90;0.83;;;21.90;99.90;;;;;;5069536;28;20220;-80
2022/07/26 03:04:29;;;;;;;0.30;0.30;;;21.80;99.90;;;;;;5071957;28;20204;-79
2022/07/26 03:06:55;;;;;;;3.17;0.50;;;21.70;99.90;;;;;;5067127;28;20213;-79
2022/07/26 03:09:20;;;;;;;0.67;0.67;;;21.60;99.90;;;;;;5071013;28;20173;-80
2022/07/26 03:11:46;;;;;;;0.20;0.20;;;21.50;99.90;;;;;;5062571;28;20275;-80
2022/07/26 03:14:11;;;;;;;0.37;0.37;;;21.40;99.90;;;;;;5067379;28;20611;-80
2022/07/26 03:16:37;;;;;;;0.20;0.20;;;21.40;99.90;;;;;;5070796;28;20197;-80
2022/07/26 03:19:03;;;;;;;0.20;0.20;;;21.40;99.90;;;;;;5071961;28;20275;-80
2022/07/26 03:21:28;;;;;;;0.60;0.60;;;21.40;99.90;;;;;;5072338;28;20204;-80
2022/07/26 03:23:54;;;;;;;0.37;0.30;;;21.30;99.90;;;;;;5067786;28;20639;-80
2022/07/26 03:26:20;;;;;;;0.47;0.33;;;21.20;99.90;;;;;;5066793;28;20195;-80
2022/07/26 03:28:45;;;;;;;0.20;0.20;;;21.10;99.90;;;;;;5064110;28;20249;-79
2022/07/26 03:31:12;;;;;;;0.27;0.27;;;21.00;99.90;;;;;;5066506;28;20201;-79
2022/07/26 03:33:38;;;;;;;0.43;0.33;;;21.00;99.90;;;;;;5068872;28;20591;-80
2022/07/26 03:36:04;;;;;;;0.40;0.40;;;20.90;99.90;;;;;;5068748;28;20189;-79
2022/07/26 03:38:30;;;;;;;0.30;0.30;;;20.90;99.90;;;;;;5068217;28;20526;-80
2022/07/26 03:40:56;;;;;;;0.23;0.23;;;20.90;99.90;;;;;;5073088;28;20212;-79
2022/07/26 03:43:21;;;;;;;0.30;0.30;;;20.80;99.90;;;;;;5065931;28;20666;-80
2022/07/26 03:45:47;;;;;;;0.30;0.30;;;20.80;99.90;;;;;;5073187;28;20192;-79
2022/07/26 03:48:12;;;;;;;0.40;0.40;;;20.70;99.90;;;;;;5073311;28;20673;-80
2022/07/26 03:50:38;;;;;;;0.40;0.40;;;20.60;99.90;;;;;;5070801;28;20201;-80
2022/07/26 03:53:04;;;;;;;0.83;0.20;;;20.50;99.90;;;;;;5069553;28;20541;-80
2022/07/26 03:58:14;;;;;;;0.50;0.50;;;20.50;99.90;;;;;;5067000;28;20216;-80
2022/07/26 04:00:39;;;;;;;0.53;0.53;;;20.40;99.90;;;;;;5072140;28;20224;-80
2022/07/26 04:03:05;;;;;;;1.23;0.43;;;20.40;99.90;;;;;;5064331;28;20182;-80
2022/07/26 04:05:30;;;;;;;0.67;0.63;;;20.30;99.90;;;;;;5071426;28;20173;-79
2022/07/26 04:07:56;;;;;;;0.50;0.50;;;20.30;99.90;;;;;;5062351;28;20190;-80
2022/07/26 04:10:22;;;;;;;0.30;0.30;;;20.40;99.90;;;;;;5070216;28;20548;-79
2022/07/26 04:12:48;;;;;;;0.70;0.70;;;20.90;99.90;;;;;;5068169;28;20787;-80
2022/07/26 04:15:15;;;;;;;0.20;0.20;;;21.50;99.90;;;;;;5068226;28;20255;-79
2022/07/26 04:17:42;;;;;;;0.40;0.33;;;22.00;99.90;;;;;;5070441;28;20291;-80
2022/07/26 04:20:09;;;;;;;0.20;0.20;;;22.00;99.90;;;;;;5069855;28;20696;-80
2022/07/26 04:22:37;;;;;;;0.30;0.30;;;22.00;99.90;;;;;;5063500;28;20236;-80
2022/07/26 04:25:05;;;;;;;0.40;0.40;;;21.90;99.90;;;;;;5065529;28;20268;-79
2022/07/26 04:27:31;;;;;;;0.27;0.27;;;21.90;99.90;;;;;;5066846;28;20173;-80
2022/07/26 04:29:56;;;;;;;0.40;0.40;;;21.60;99.90;;;;;;5065352;28;20228;-80
2022/07/26 04:32:22;;;;;;;0.73;0.60;;;21.60;99.90;;;;;;5069388;28;20189;-80
2022/07/26 04:34:48;;;;;;;0.43;0.37;;;21.40;99.90;;;;;;5068342;28;20264;-79
2022/07/26 04:37:13;;;;;;;0.30;0.30;;;21.30;99.90;;;;;;5064226;28;20649;-79
2022/07/26 04:39:39;;;;;;;0.87;0.57;;;21.30;99.90;;;;;;5071161;28;20349;-80
2022/07/26 04:42:04;;;;;;;0.20;0.20;;;21.30;99.90;;;;;;5066735;28;20174;-80
2022/07/26 04:44:30;;;;;;;0.30;0.30;;;21.30;99.90;;;;;;5068584;28;20574;-80
2022/07/26 04:46:55;;;;;;;0.20;0.20;;;21.20;99.90;;;;;;5063340;28;20678;-80
2022/07/26 04:49:21;;;;;;;0.20;0.20;;;21.30;99.90;;;;;;5081308;28;20559;-80
2022/07/26 04:51:46;;;;;;;0.37;0.37;;;21.30;99.90;;;;;;5064700;28;20204;-80
2022/07/26 04:54:14;;;;;;;0.20;0.20;;;21.40;99.90;;;;;;5066381;28;20189;-80
2022/07/26 04:56:40;;;;;;;0.13;0.13;;;21.40;99.90;;;;;;5063945;28;20181;-80
2022/07/26 04:59:05;;;;;;;0.50;0.50;;;21.20;99.90;;;;;;5085887;28;20634;-79
2022/07/26 05:01:31;;;;;;;0.80;0.60;;;21.20;99.90;;;;;;5071840;28;20208;-81
2022/07/26 05:03:56;;;;;;;0.40;0.40;;;21.10;99.90;;;;;;5074687;28;20198;-80
2022/07/26 05:06:22;;;;;;;0.10;0.10;;;21.20;99.90;;;;;;5069113;28;20185;-80
2022/07/26 05:08:47;;;;;;;0.20;0.20;;;21.20;99.90;;;;;;5065118;28;20178;-80
2022/07/26 05:11:13;;;;;;;0.40;0.40;;;21.20;99.90;;;;;;5069995;28;20284;-80
2022/07/26 05:13:39;;;;;;;0.20;0.20;;;21.20;99.90;;;;;;5067536;28;20181;-80
2022/07/26 05:16:04;;;;;;;0.20;0.20;;;21.30;99.90;;;;;;5070486;28;20626;-80
2022/07/26 05:18:30;;;;;;;0.20;0.20;;;21.20;99.90;;;;;;5068596;28;20694;-80
2022/07/26 05:20:56;;;;;;;0.40;0.40;;;21.00;99.90;;;;;;5070988;28;20748;-79
2022/07/26 05:23:21;;;;;;;0.60;0.40;;;21.00;99.90;;;;;;5068293;28;20199;-80
2022/07/26 05:25:47;;;;;;;0.20;0.20;;;21.00;99.90;;;;;;5065069;28;20559;-79
2022/07/26 05:28:13;;;;;;;1.40;1.13;;;21.00;99.90;;;;;;5065381;28;20193;-79
2022/07/26 05:30:38;;;;;;;0.20;0.20;;;21.00;99.90;;;;;;5084012;28;20200;-80
2022/07/26 05:33:04;;;;;;;0.30;0.30;;;21.00;99.90;;;;;;5067164;28;20178;-79
2022/07/26 05:35:29;;;;;;;0.80;0.80;;;21.00;99.90;;;;;;5070535;28;20204;-79
2022/07/26 05:37:55;;;;;;;0.17;0.17;;;21.00;99.90;;;;;;5069883;28;20249;-79
2022/07/26 05:40:21;;;;;;;0.40;0.40;;;21.10;99.90;;;;;;5072358;28;20980;-79
2022/07/26 05:42:47;;;;;;;0.20;0.20;;;21.10;99.90;;;;;;5070142;28;20268;-80
2022/07/26 05:45:12;;;;;;;3.67;0.43;;;21.20;99.90;;;;;;5070981;28;20177;-80
2022/07/26 05:47:38;;;;;;;0.60;0.43;;;21.20;99.90;;;;;;5072972;28;20181;-80
2022/07/26 05:50:05;;;;;;;0.20;0.20;;;21.20;99.90;;;;;;5068902;28;20216;-79
2022/07/26 05:52:31;;;;;;;0.20;0.20;;;21.20;99.90;;;;;;5070986;28;20190;-79
2022/07/26 05:54:57;;;;;;;0.33;0.30;;;21.30;99.90;;;;;;5069511;28;20189;-80
2022/07/26 05:57:23;;;;;;;0.40;0.40;;;21.40;99.90;;;;;;5073640;28;20192;-79
2022/07/26 05:59:48;;;;;;;0.30;0.30;;;21.40;99.90;;;;;;5070768;28;20220;-80
2022/07/26 06:02:14;;;;;;;0.20;0.20;;;21.50;99.90;;;;;;5067867;28;20268;-79
2022/07/26 06:04:39;;;;;;;0.20;0.20;;;21.60;99.90;;;;;;5069327;28;20177;-80
2022/07/26 06:07:05;;;;;;;0.20;0.20;;;21.50;99.90;;;;;;5072742;28;20185;-79
2022/07/26 06:09:31;;;;;;;0.40;0.40;;;21.50;99.90;;;;;;5072411;28;20192;-79
2022/07/26 06:11:56;;;;;;;0.30;0.30;;;21.60;99.90;;;;;;5063329;28;20721;-80
2022/07/26 06:14:22;;;;;;;0.30;0.30;;;21.50;99.90;;;;;;5068177;28;20180;-80
2022/07/26 06:16:48;;;;;;;0.20;0.20;;;21.50;99.90;;;;;;5071856;28;20190;-79
2022/07/26 06:19:13;;;;;;;0.30;0.30;;;21.60;99.90;;;;;;5073467;28;20231;-79
2022/07/26 06:21:39;;;;;;;0.30;0.30;;;21.70;99.90;;;;;;5072728;28;20911;-79
2022/07/26 06:24:05;;;;;;;0.30;0.30;;;21.80;99.90;;;;;;5070290;28;20745;-80
2022/07/26 06:26:30;;;;;;;1.23;1.23;;;21.90;99.90;;;;;;5073604;28;20181;-79
2022/07/26 06:28:56;;;;;;;0.40;0.40;;;22.00;99.90;;;;;;5070276;28;20235;-80
2022/07/26 06:31:22;;;;;;;0.27;0.27;;;22.10;99.90;;;;;;5073000;28;20212;-80
2022/07/26 06:33:47;;;;;;;0.20;0.20;;;22.20;99.90;;;;;;5070226;28;20220;-80
2022/07/26 06:36:13;;;;;;;0.20;0.20;;;22.20;99.90;;;;;;5068543;28;20272;-80
2022/07/26 06:38:39;;;;;;;0.20;0.20;;;22.20;99.90;;;;;;5071563;28;20220;-79
2022/07/26 06:41:04;;;;;;;0.30;0.20;;;22.10;99.90;;;;;;5070439;28;20592;-80
2022/07/26 06:43:30;;;;;;;0.30;0.30;;;22.20;99.90;;;;;;5065836;28;20189;-80
2022/07/26 06:45:55;;;;;;;0.53;0.27;;;22.20;99.90;;;;;;5070461;28;20228;-80
2022/07/26 06:48:21;;;;;;;0.23;0.23;;;22.10;99.90;;;;;;5070576;28;20189;-80
2022/07/26 06:50:46;;;;;;;0.23;0.23;;;22.10;99.90;;;;;;5072316;28;20213;-80
2022/07/26 06:53:12;;;;;;;0.40;0.40;;;21.90;99.90;;;;;;5071066;28;20193;-80
2022/07/26 06:55:38;;;;;;;0.40;0.20;;;21.80;99.90;;;;;;5071823;28;20208;-80
2022/07/26 06:58:03;;;;;;;0.30;0.30;;;21.80;99.90;;;;;;5086728;28;20192;-80
2022/07/26 07:00:29;;;;;;;0.40;0.40;;;21.70;99.90;;;;;;5069727;28;20658;-80
2022/07/26 07:02:55;;;;;;;0.37;0.37;;;21.60;99.90;;;;;;5066892;28;20643;-80
2022/07/26 07:05:20;;;;;;;0.57;0.50;;;21.60;99.90;;;;;;5069509;28;20185;-80
2022/07/26 07:07:46;;;;;;;0.30;0.30;;;21.60;99.90;;;;;;5077911;28;20200;-80
2022/07/26 07:10:11;;;;;;;0.30;0.20;;;21.70;99.90;;;;;;5070547;28;20205;-80
2022/07/26 07:12:38;;;;;;;0.93;0.93;;;21.70;99.90;;;;;;5074199;28;20228;-79
2022/07/26 07:15:04;;;;;;;0.30;0.30;;;21.90;99.90;;;;;;5073380;28;20242;-80
2022/07/26 07:17:30;;;;;;;0.30;0.30;;;22.20;99.90;;;;;;5072517;28;20189;-80
2022/07/26 07:19:55;;;;;;;0.20;0.20;;;22.40;99.90;;;;;;5068773;28;20238;-80
2022/07/26 07:22:21;;;;;;;0.30;0.30;;;22.30;99.90;;;;;;5069231;28;20189;-80
2022/07/26 07:24:47;;;;;;;0.20;0.20;;;22.40;99.90;;;;;;5073967;28;20646;-80
2022/07/26 07:27:12;;;;;;;0.20;0.20;;;22.40;99.90;;;;;;5072624;28;20191;-80
2022/07/26 07:29:38;;;;;;;0.23;0.23;;;22.70;99.90;;;;;;5075157;28;20274;-80
2022/07/26 07:32:04;;;;;;;0.10;0.10;;;22.90;99.90;;;;;;5076274;28;20185;-80
2022/07/26 07:34:30;;;;;;;0.30;0.30;;;23.00;99.90;;;;;;5075123;28;20196;-80
2022/07/26 07:36:55;;;;;;;0.20;0.20;;;23.10;99.90;;;;;;5069108;28;20603;-80
2022/07/26 07:39:21;;;;;;;0.40;0.40;;;23.20;99.90;;;;;;5074977;28;20295;-79
2022/07/26 07:41:47;;;;;;;0.20;0.20;;;23.40;99.90;;;;;;5073773;28;20557;-80
2022/07/26 07:44:13;;;;;;;0.47;0.40;;;23.40;99.90;;;;;;5076557;28;20177;-80
2022/07/26 07:46:39;;;;;;;0.30;0.30;;;23.60;99.90;;;;;;5070945;28;20631;-80
2022/07/26 07:49:05;;;;;;;0.20;0.20;;;23.60;99.90;;;;;;5076483;28;20199;-80
2022/07/26 07:51:32;;;;;;;0.20;0.20;;;23.90;99.90;;;;;;5082334;28;20215;-80
2022/07/26 07:53:57;;;;;;;0.50;0.33;;;24.30;99.90;;;;;;5078010;28;20177;-81
2022/07/26 07:56:23;;;;;;;0.30;0.30;;;24.40;99.90;;;;;;5071701;28;20244;-80
2022/07/26 07:58:49;;;;;;;0.20;0.20;;;24.50;99.90;;;;;;5077129;28;20186;-80
2022/07/26 08:01:14;;;;;;;0.30;0.30;;;24.40;99.90;;;;;;5076624;28;20654;-80
2022/07/26 08:03:40;;;;;;;0.40;0.40;;;24.60;99.90;;;;;;5077976;28;20630;-80
2022/07/26 08:06:08;;;;;;;0.20;0.20;;;24.60;99.90;;;;;;5072546;28;20196;-80
2022/07/26 08:08:35;;;;;;;0.20;0.20;;;25.10;99.90;;;;;;5068457;28;20199;-80
2022/07/26 08:11:00;;;;;;;0.27;0.27;;;25.20;99.90;;;;;;5067653;28;20215;-80
2022/07/26 08:13:26;;;;;;;0.27;0.27;;;25.00;99.90;;;;;;5071378;28;20275;-80
2022/07/26 08:15:53;;;;;;;0.27;0.27;;;24.90;99.90;;;;;;5088970;28;20189;-80
2022/07/26 08:18:20;;;;;;;0.20;0.20;;;25.00;99.90;;;;;;5067697;28;20185;-79
2022/07/26 08:20:46;;;;;;;0.27;0.27;;;25.00;99.90;;;;;;5065500;28;20225;-79
2022/07/26 08:23:11;;;;;;;0.20;0.20;;;25.20;99.90;;;;;;5069234;28;20252;-79
2022/07/26 08:25:37;;;;;;;0.50;0.50;;;24.90;99.90;;;;;;5086138;28;20235;-79
2022/07/26 08:28:03;;;;;;;0.30;0.30;;;24.80;99.90;;;;;;5073074;28;20885;-80
2022/07/26 08:30:29;;;;;;;0.37;0.37;;;24.60;99.90;;;;;;5070121;28;20224;-80
2022/07/26 08:32:54;;;;;;;0.27;0.27;;;24.60;99.90;;;;;;5070443;28;20330;-80
2022/07/26 08:35:20;;;;;;;0.30;0.30;;;24.80;99.90;;;;;;5069688;28;20714;-80
2022/07/26 08:37:46;;;;;;;0.30;0.30;;;24.70;99.90;;;;;;5067239;28;20181;-79
2022/07/26 08:40:12;;;;;;;0.20;0.20;;;24.90;99.90;;;;;;5067110;28;20346;-80
2022/07/26 08:42:38;;;;;;;0.30;0.30;;;24.90;99.90;;;;;;5070701;28;20185;-80
2022/07/26 08:45:04;;;;;;;0.40;0.40;;;24.90;99.90;;;;;;5071084;28;20185;-80
2022/07/26 08:47:29;;;;;;;1.17;0.60;;;25.20;99.90;;;;;;5072893;28;20260;-79
2022/07/26 08:49:55;;;;;;;0.23;0.23;;;25.30;99.90;;;;;;5070701;28;20209;-79
2022/07/26 08:52:20;;;;;;;0.40;0.40;;;25.70;99.90;;;;;;5071961;28;20280;-79
2022/07/26 08:54:50;;;;;;;0.40;0.40;;;25.90;99.90;;;;;;5072968;28;20689;-80
2022/07/26 08:57:17;;;;;;;0.40;0.40;;;26.40;99.90;;;;;;5068964;28;20193;-80
2022/07/26 08:59:43;;;;;;;0.40;0.40;;;26.00;99.90;;;;;;5070254;28;20599;-80
2022/07/26 09:02:11;;;;;;;0.20;0.20;;;26.00;99.90;;;;;;5088540;28;20264;-80
2022/07/26 09:04:45;;;;;;;0.20;0.20;;;25.90;99.90;;;;;;5073442;28;20188;-80
2022/07/26 09:07:15;;;;;;;0.47;0.43;;;26.30;99.90;;;;;;5068389;28;20188;-80
2022/07/26 09:09:59;;;;;;;0.47;0.30;;;25.90;99.90;;;;;;5063192;28;20202;-80
2022/07/26 09:12:26;;;;;;;0.60;0.43;;;25.60;99.90;;;;;;5070641;28;20204;-81
2022/07/26 09:14:53;;;;;;;0.50;0.47;;;26.20;99.90;;;;;;5072240;28;20219;-80
2022/07/26 09:17:21;;;;;;;0.20;0.20;;;26.10;99.90;;;;;;5070412;28;20779;-81
2022/07/26 09:20:05;;;;;;;0.30;0.30;;;25.90;99.90;;;;;;5072177;28;20217;-81
2022/07/26 09:22:30;;;;;;;0.30;0.30;;;25.80;99.90;;;;;;5075111;28;20180;-80
2022/07/26 09:24:57;;;;;;;0.30;0.30;;;25.70;99.90;;;;;;5070647;28;20177;-80
2022/07/26 09:27:22;;;;;;;0.23;0.23;;;25.40;99.90;;;;;;5060685;28;20190;-81
2022/07/26 09:29:53;;;;;;;0.20;0.20;;;25.30;99.90;;;;;;5070109;28;20207;-80
2022/07/26 09:32:25;;;;;;;0.23;0.23;;;25.60;99.90;;;;;;5070507;28;20319;-80
2022/07/26 09:34:56;;;;;;;0.30;0.30;;;26.00;99.90;;;;;;5071018;28;20258;-81
2022/07/26 09:37:35;;;;;;;0.40;0.40;;;26.10;99.90;;;;;;5072187;28;20185;-80
2022/07/26 09:40:04;;;;;;;0.27;0.27;;;26.30;99.90;;;;;;5066672;28;20217;-81
2022/07/26 09:42:30;;;;;;;0.30;0.30;;;26.80;99.90;;;;;;5063055;28;20178;-81
2022/07/26 09:44:57;;;;;;;0.40;0.40;;;27.20;99.90;;;;;;5070114;28;20185;-80
2022/07/26 09:47:35;;;;;;;0.30;0.30;;;27.40;99.90;;;;;;5069638;28;20203;-81
2022/07/26 09:50:15;;;;;;;0.30;0.30;;;27.00;99.90;;;;;;5068883;28;20224;-80
2022/07/26 09:52:57;;;;;;;0.23;0.23;;;26.90;99.90;;;;;;5071208;28;20832;-80
2022/07/26 09:55:22;;;;;;;0.20;0.20;;;27.00;99.90;;;;;;5068050;28;20185;-80
2022/07/26 09:57:50;;;;;;;0.30;0.30;;;27.20;99.90;;;;;;5071796;28;20188;-80
2022/07/26 10:00:15;;;;;;;0.30;0.30;;;26.40;99.90;;;;;;5070715;28;20295;-80
2022/07/26 10:02:41;;;;;;;1.63;1.53;;;26.80;99.90;;;;;;5068303;28;20188;-81
2022/07/26 10:05:07;;;;;;;0.10;0.10;;;27.20;99.90;;;;;;5089577;28;20208;-81
2022/07/26 10:07:33;;;;;;;0.40;0.40;;;27.30;99.90;;;;;;5070908;28;20525;-81
2022/07/26 10:10:05;;;;;;;0.23;0.23;;;27.60;99.90;;;;;;5070703;28;20250;-80
2022/07/26 10:12:32;;;;;;;0.30;0.30;;;27.60;99.90;;;;;;5070354;28;20590;-80
2022/07/26 10:14:58;;;;;;;0.40;0.40;;;27.20;99.90;;;;;;5069041;28;20193;-81
2022/07/26 10:17:32;;;;;;;0.40;0.40;;;26.80;99.90;;;;;;5064659;28;20250;-80
2022/07/26 10:20:04;;;;;;;0.30;0.30;;;26.60;99.90;;;;;;5076147;28;20285;-81
2022/07/26 10:22:35;;;;;;;0.40;0.40;;;26.60;99.90;;;;;;5072447;28;20660;-80
2022/07/26 10:25:30;;;;;;;0.30;0.30;;;26.80;99.90;;;;;;5065394;28;20700;-80
2022/07/26 10:27:56;;;;;;;0.30;0.30;;;26.80;99.90;;;;;;5058191;28;20209;-80
2022/07/26 10:30:26;;;;;;;0.20;0.20;;;26.90;99.90;;;;;;5069901;28;20688;-80
2022/07/26 10:32:57;;;;;;;0.30;0.30;;;27.00;99.90;;;;;;5066756;28;20634;-81
2022/07/26 10:35:31;;;;;;;0.53;0.40;;;26.70;99.90;;;;;;5067277;28;20223;-80
2022/07/26 10:37:58;;;;;;;0.20;0.20;;;26.80;99.90;;;;;;5071415;28;20220;-80
2022/07/26 10:40:28;;;;;;;0.30;0.30;;;27.10;99.90;;;;;;5071543;28;20753;-80
2022/07/26 10:43:09;;;;;;;0.23;0.23;;;26.90;99.90;;;;;;5069287;28;20666;-80
2022/07/26 10:45:35;;;;;;;0.63;0.63;;;27.00;99.90;;;;;;5074406;28;20184;-80
2022/07/26 10:48:15;;;;;;;0.20;0.20;;;26.80;99.90;;;;;;5071741;28;20241;-80
2022/07/26 10:50:43;;;;;;;0.40;0.40;;;26.60;99.90;;;;;;5086405;28;20215;-80
2022/07/26 10:53:15;;;;;;;0.20;0.20;;;26.50;99.90;;;;;;5073425;28;20188;-80
2022/07/26 10:55:55;;;;;;;0.30;0.30;;;26.40;99.90;;;;;;5073704;28;20231;-80
2022/07/26 10:58:23;;;;;;;0.30;0.30;;;27.10;99.90;;;;;;5068765;28;20266;-80
2022/07/26 11:01:03;;;;;;;0.40;0.40;;;27.60;99.90;;;;;;5071130;28;20221;-80
2022/07/26 11:03:42;;;;;;;0.37;0.37;;;28.00;99.90;;;;;;5072748;28;20188;-80
2022/07/26 11:06:16;;;;;;;0.40;0.40;;;28.30;99.90;;;;;;5084813;28;20260;-80
2022/07/26 11:08:43;;;;;;;2.07;0.60;;;28.20;99.90;;;;;;5070410;28;20188;-80
2022/07/26 11:11:09;;;;;;;0.50;0.50;;;27.90;99.90;;;;;;5072920;28;20197;-80
2022/07/26 11:13:36;;;;;;;0.30;0.30;;;27.60;99.90;;;;;;5070170;28;20182;-80
2022/07/26 11:16:04;;;;;;;0.63;0.50;;;27.50;99.90;;;;;;5078149;28;20595;-80
2022/07/26 11:18:35;;;;;;;0.30;0.30;;;27.40;99.90;;;;;;5073867;28;20238;-80
2022/07/26 11:21:12;;;;;;;4.47;0.50;;;27.40;99.90;;;;;;5074483;28;20252;-80
2022/07/26 11:23:41;;;;;;;0.50;0.50;;;27.40;99.90;;;;;;5073572;28;20181;-80
2022/07/26 11:26:22;;;;;;;0.20;0.20;;;27.30;99.90;;;;;;5068418;28;20181;-79
2022/07/26 11:29:00;;;;;;;0.70;0.57;;;27.10;99.90;;;;;;5072570;28;20197;-80
2022/07/26 11:31:41;;;;;;;0.43;0.40;;;26.70;99.90;;;;;;5088087;28;20201;-80
2022/07/26 11:34:14;;;;;;;0.33;0.33;;;26.20;99.90;;;;;;5072840;28;20203;-80
2022/07/26 11:36:42;;;;;;;0.40;0.40;;;25.60;99.90;;;;;;5071192;28;20189;-80
2022/07/26 11:39:13;;;;;;;0.37;0.30;;;26.10;99.90;;;;;;5086102;28;20197;-80
2022/07/26 11:41:41;;;;;;;0.40;0.40;;;26.30;99.90;;;;;;5068825;28;20224;-80
2022/07/26 11:44:15;;;;;;;2.23;0.73;;;25.50;99.90;;;;;;5069796;28;20181;-80
2022/07/26 11:46:46;;;;;;;0.50;0.50;;;25.20;99.90;;;;;;5069979;28;20211;-81
2022/07/26 11:49:23;;;;;;;0.40;0.40;;;25.20;99.90;;;;;;5071183;28;20220;-80
2022/07/26 11:52:02;;;;;;;0.40;0.40;;;25.20;99.90;;;;;;5068939;28;20188;-80
2022/07/26 11:54:32;;;;;;;0.30;0.30;;;25.00;99.90;;;;;;5069121;28;20189;-81
2022/07/26 11:57:03;;;;;;;0.77;0.40;;;25.00;99.90;;;;;;5068687;28;20726;-80
2022/07/26 11:59:36;;;;;;;0.30;0.30;;;25.70;99.90;;;;;;5069867;28;20211;-80
2022/07/26 12:02:04;;;;;;;0.30;0.30;;;26.60;99.90;;;;;;5068561;28;20663;-80
2022/07/26 12:04:38;;;;;;;0.80;0.60;;;27.40;99.90;;;;;;5065342;28;20185;-80
2022/07/26 12:07:12;;;;;;;0.50;0.50;;;27.90;99.90;;;;;;5072805;28;20173;-80
2022/07/26 12:09:40;;;;;;;0.40;0.40;;;28.00;99.90;;;;;;5070709;28;20623;-80
2022/07/26 12:12:17;;;;;;;0.30;0.30;;;27.90;99.90;;;;;;5070314;28;20246;-80
2022/07/26 12:14:55;;;;;;;0.63;0.63;;;27.20;99.90;;;;;;5086272;28;20185;-80
2022/07/26 12:17:21;;;;;;;0.40;0.40;;;27.10;99.90;;;;;;5070799;28;20176;-80
2022/07/26 12:19:46;;;;;;;0.80;0.70;;;27.80;99.90;;;;;;5067573;28;20552;-80
2022/07/26 12:22:14;;;;;;;0.50;0.50;;;27.70;99.90;;;;;;5067678;28;20253;-80
2022/07/26 12:24:43;;;;;;;1.20;0.73;;;27.70;99.90;;;;;;5065892;28;20306;-80
2022/07/26 12:27:10;;;;;;;0.47;0.40;;;27.30;99.90;;;;;;5070842;28;20533;-80
2022/07/26 12:29:38;;;;;;;1.23;0.60;;;26.80;99.90;;;;;;5069241;28;20277;-80
2022/07/26 12:32:10;;;;;;;1.73;0.63;;;26.10;99.90;;;;;;5071210;28;20255;-80
2022/07/26 12:34:37;;;;;;;0.40;0.40;;;26.20;99.90;;;;;;5071280;28;20270;-80
2022/07/26 12:37:15;;;;;;;0.60;0.60;;;25.90;99.90;;;;;;5068920;28;20563;-80
2022/07/26 12:39:56;;;;;;;0.37;0.37;;;26.00;99.90;;;;;;5069193;28;20585;-80
2022/07/26 12:42:25;;;;;;;0.30;0.30;;;25.90;99.90;;;;;;5061402;28;20180;-80
2022/07/26 12:44:51;;;;;;;0.53;0.40;;;26.10;99.90;;;;;;5088732;28;20185;-80
2022/07/26 12:47:16;;;;;;;0.40;0.40;;;26.50;99.90;;;;;;5069056;28;20189;-80
2022/07/26 12:49:45;;;;;;;0.37;0.37;;;26.80;99.90;;;;;;5067488;28;20224;-80
2022/07/26 12:52:12;;;;;;;0.40;0.40;;;27.00;99.90;;;;;;5067456;28;20241;-80